createdAt,value
2022-09-12T00:02:16.916Z,6.80
2022-09-12T00:17:20.079Z,8.20
2022-09-12T00:32:23.353Z,8.40
2022-09-12T00:47:33.043Z,9.30
2022-09-12T01:02:36.226Z,4.20
2022-09-12T01:18:13.891Z,5.90
2022-09-12T01:33:34.390Z,5.30
2022-09-12T01:48:46.117Z,9.30
2022-09-12T02:03:59.015Z,7.30
2022-09-12T02:19:13.099Z,13.40
2022-09-12T02:34:49.550Z,9.10
2022-09-12T02:49:54.224Z,10.50
2022-09-12T03:05:26.616Z,8.20
2022-09-12T03:20:49.855Z,13.40
2022-09-12T03:35:53.780Z,15.70
2022-09-12T03:51:00.817Z,7.30
2022-09-12T04:06:03.996Z,6.40
2022-09-12T04:21:10.398Z,11.50
2022-09-12T04:36:18.252Z,11.60
2022-09-12T04:51:28.054Z,11.30
2022-09-12T05:06:34.694Z,18.60
2022-09-12T05:21:38.183Z,18.10
2022-09-12T05:36:41.775Z,7.20
2022-09-12T05:51:46.396Z,28.90
2022-09-12T06:06:50.432Z,11.30
2022-09-12T06:21:54.209Z,6.50
2022-09-12T06:36:58.213Z,6.40
2022-09-12T06:52:01.644Z,5.20
2022-09-12T07:07:06.020Z,5.00
2022-09-12T07:22:09.222Z,4.40
2022-09-12T07:37:12.523Z,5.10
2022-09-12T07:52:15.756Z,8.10
2022-09-12T08:07:19.406Z,6.50
2022-09-12T08:22:23.324Z,5.20
2022-09-12T08:37:29.965Z,3.90
2022-09-12T08:53:02.791Z,5.70
2022-09-12T09:08:36.283Z,3.00
2022-09-12T09:23:45.021Z,4.10
2022-09-12T09:39:06.746Z,7.40
2022-09-12T09:54:50.279Z,3.70
2022-09-12T10:10:18.516Z,2.30
2022-09-12T10:25:25.994Z,4.10
2022-09-12T10:40:39.467Z,4.00
2022-09-12T10:56:09.231Z,4.70
2022-09-12T11:11:56.811Z,4.10
2022-09-12T11:27:30.905Z,3.30
2022-09-12T11:42:39.147Z,5.30
2022-09-12T11:57:42.517Z,6.00
2022-09-12T12:12:46.842Z,3.60
2022-09-12T12:27:54.812Z,3.70
2022-09-12T12:43:03.933Z,4.50
2022-09-12T12:58:20.324Z,11.80
2022-09-12T13:13:29.007Z,8.70
2022-09-12T13:28:32.754Z,4.00
2022-09-12T13:43:41.980Z,2.90
2022-09-12T13:58:58.190Z,5.70
2022-09-12T14:14:07.078Z,4.00
2022-09-12T14:29:15.225Z,12.70
2022-09-12T14:44:24.633Z,14.50
2022-09-12T14:59:40.418Z,7.80
2022-09-12T15:14:44.038Z,9.80
2022-09-12T15:29:47.984Z,8.40
2022-09-12T15:44:53.872Z,6.30
2022-09-12T15:59:57.929Z,8.40
2022-09-12T16:15:01.542Z,9.20
2022-09-12T16:30:07.800Z,9.00
2022-09-12T16:45:13.318Z,8.00
2022-09-12T17:00:17.447Z,25.90
2022-09-12T17:15:21.211Z,55.70
2022-09-12T17:30:25.315Z,51.30
2022-09-12T17:45:30.649Z,148.50
2022-09-12T18:00:54.760Z,88.60
2022-09-12T18:16:11.355Z,89.80
2022-09-12T18:31:18.742Z,38.80
2022-09-12T18:46:25.440Z,54.70
2022-09-12T19:01:32.838Z,101.60
2022-09-12T19:16:37.265Z,28.20
2022-09-12T19:31:40.789Z,33.60
2022-09-12T19:46:46.277Z,78.40
2022-09-12T20:01:50.334Z,49.70
2022-09-12T20:16:53.728Z,12.70
2022-09-12T20:31:57.108Z,24.60
2022-09-12T20:47:00.550Z,9.80
2022-09-12T21:02:04.137Z,15.80
2022-09-12T21:17:07.532Z,28.60
2022-09-12T21:32:14.063Z,32.80
2022-09-12T21:47:17.931Z,43.90
2022-09-12T22:02:23.151Z,26.50
2022-09-12T22:17:26.256Z,28.00
2022-09-12T22:32:29.243Z,30.60
2022-09-12T22:47:32.352Z,37.50
2022-09-12T23:02:35.415Z,32.50
2022-09-12T23:17:38.460Z,20.20
2022-09-12T23:32:41.485Z,23.80
2022-09-12T23:47:44.747Z,24.10
